Main page
METAR-TAF:

METAR-TAF

Airports :

Sri Guru Ram Dass Jee International Airport

Amritsar, India

latitude: 31-38N, longitude: 074-52E, elevation: 229 m

Current weather observation

The report was made 22 minutes ago, at 09:00 UTC
Wind 4 kt from the West/Northwest
Temperature 29°C
Humidity 40%
Pressure 1013 hPa
Visibility: 6000 m
Few clouds at a height of 4000 ft

METAR: VIAR 040900Z 29004KT 6000 FEW040 29/14 Q1013 NOSIG

Time: 14:52 (09:22 UTC)

Forecast

The report was made 1 hour and 22 minutes ago, at 08:00 UTC
Forecast valid from 04 at 09 UTC to 04 at 18 UTC
Wind 5 kt from the West/Northwest
Visibility: 5000 m
Few clouds at a height of 10000 ft
haze
Becoming
from 04 at 15 UTC to 04 at 17 UTC
Wind kt from the North
Visibility: 3000 m
Scattered clouds at a height of 4000 ft
Scattered clouds at a height of 10000 ft
mist

TAF: VIAR 040800Z 0409/0418 30005KT 5000 HZ FEW100 BECMG 0415/0417 00000KT 3000 BR SCT040 SCT100

Weather observations and forecasts of more than 4000 airports (METAR and TAF reports).

The available stations are represented by yellow and red dots on the map.

Hover mouse over dot to see the name of the station.

Then click to see weather observations and forecasts.

To change the map : click on the green buttons with a black cross to zoom in, on the green button with a dash to zoom out, or on the green arrows for adjacent maps.


METAR-TAF: